Main page
METAR-TAF:

METAR-TAF

Airports :

Hagåtña, Guam, United States

Antonio B. Won Pat International Airport

latitude: 13-29N, longitude: 144-48E, elevation: 91 m

Current weather observation

The report was made 1 hour and 1 minutes ago, at 10:54 UTC
Wind 10 kt from the East/Northeast
Temperature 28°C
Humidity 94%
Pressure 1012 hPa
Visibility: 16.1 km
Few clouds at a height of 12000 ft

METAR: PGUM 261054Z 07010KT 10SM FEW120 28/27 A2989 RMK AO2 SLP115 T02830267

Time: 21:55 (11:55 UTC)

Forecast

The report was made 18 minutes ago, at 11:37 UTC
Forecast valid from 26 at 12 UTC to 27 at 18 UTC
Wind 10 kt from the East
Visibility: 10 km
Few clouds at a height of 1500 ft
Scattered clouds at a height of 2500 ft
showers in vicinity
Temporary
from 26 at 16 UTC to 26 at 20 UTC
Visibility: 8.0 km
Broken clouds at a height of 2500 ft
rain showers

TAF: PGUM 261137Z 2612/2718 08010KT P6SM VCSH FEW015 SCT025 TEMPO 2616/2620 5SM SHRA BKN025

Weather observations and forecasts of more than 4000 airports (METAR and TAF reports).

The available stations are represented by yellow and red dots on the map.

Hover mouse over dot to see the name of the station.

Then click to see weather observations and forecasts.

To change the map : click on the green buttons with a black cross to zoom in, on the green button with a dash to zoom out, or on the green arrows for adjacent maps.


METAR-TAF: